Time;durP1;ratioP1;P1;durP2;ratioP2;P2;SDS_P1;SDS_P2;PMS_P1;PMS_P2;Temp;Humidity;BMP_temperature;BMP_pressure;BME280_temperature;BME280_humidity;BME280_pressure;Samples;Min_cycle;Max_cycle;Signal;HPM_P1;HPM_P2
2021/12/26 00:00:55;;;;;;;0.00;0.00;;;10.50;99.90;;;;;;5000343;28;20105;-83
2021/12/26 00:03:23;;;;;;;0.00;0.00;;;10.50;99.90;;;;;;4995936;28;20041;-82
2021/12/26 00:05:49;;;;;;;0.32;0.32;;;10.50;99.90;;;;;;4996070;28;20057;-80
2021/12/26 00:08:15;;;;;;;0.45;0.45;;;10.50;99.90;;;;;;5011121;28;20442;-80
2021/12/26 00:10:41;;;;;;;0.17;0.17;;;10.40;99.90;;;;;;5027464;28;20023;-81
2021/12/26 00:13:07;;;;;;;0.45;0.45;;;10.40;99.90;;;;;;5027551;28;20033;-79
2021/12/26 00:15:33;;;;;;;0.00;0.00;;;10.50;99.90;;;;;;4996819;28;20026;-80
2021/12/26 00:17:58;;;;;;;0.00;0.00;;;10.40;99.90;;;;;;4997032;28;20060;-80
2021/12/26 00:20:24;;;;;;;0.00;0.00;;;10.50;99.90;;;;;;4995538;28;20026;-80
2021/12/26 00:22:50;;;;;;;0.00;0.00;;;10.50;99.90;;;;;;4997389;28;20042;-80
2021/12/26 00:25:16;;;;;;;0.13;0.03;;;10.40;99.90;;;;;;4997396;28;20030;-80
2021/12/26 00:27:42;;;;;;;0.00;0.00;;;10.50;99.90;;;;;;5016479;28;20053;-80
2021/12/26 00:30:13;;;;;;;0.00;0.00;;;10.50;99.90;;;;;;5016710;28;20038;-80
2021/12/26 00:32:39;;;;;;;0.00;0.00;;;10.50;99.90;;;;;;5019364;28;20159;-81
2021/12/26 00:35:05;;;;;;;0.00;0.00;;;10.50;99.90;;;;;;5013792;28;20489;-80
2021/12/26 00:37:31;;;;;;;0.00;0.00;;;10.50;99.90;;;;;;5014208;28;20038;-80
2021/12/26 00:39:57;;;;;;;0.43;0.22;;;10.50;99.90;;;;;;5015021;28;20045;-81
2021/12/26 00:42:23;;;;;;;0.08;0.08;;;10.50;99.90;;;;;;5015446;28;20037;-80
2021/12/26 00:44:48;;;;;;;0.00;0.00;;;10.50;99.90;;;;;;5015449;28;20044;-81
2021/12/26 00:47:14;;;;;;;0.00;0.00;;;10.50;99.90;;;;;;5014773;28;20025;-81
2021/12/26 00:49:40;;;;;;;0.00;0.00;;;10.50;99.90;;;;;;5014467;28;20025;-81
2021/12/26 00:52:07;;;;;;;0.35;0.30;;;10.50;99.90;;;;;;5014820;28;20087;-81
2021/12/26 00:54:34;;;;;;;0.00;0.00;;;10.50;99.90;;;;;;5014831;28;20371;-81
2021/12/26 00:57:00;;;;;;;1.77;0.80;;;10.50;99.90;;;;;;5013219;28;20032;-82
2021/12/26 00:59:27;;;;;;;0.00;0.00;;;10.60;99.90;;;;;;5009948;28;20086;-82
2021/12/26 01:01:53;;;;;;;0.00;0.00;;;10.60;99.90;;;;;;4994960;28;20062;-82
2021/12/26 01:04:20;;;;;;;2.72;1.08;;;10.60;99.90;;;;;;4995045;28;20031;-82
2021/12/26 01:06:46;;;;;;;0.00;0.00;;;10.60;99.90;;;;;;4995023;28;20030;-82
2021/12/26 01:09:17;;;;;;;0.77;0.30;;;10.60;99.90;;;;;;4994273;28;20478;-83
2021/12/26 01:11:48;;;;;;;0.20;0.20;;;10.60;99.90;;;;;;4993365;28;20030;-83
2021/12/26 01:14:16;;;;;;;0.43;0.35;;;10.60;99.90;;;;;;4994980;28;20022;-82
2021/12/26 01:16:43;;;;;;;0.00;0.00;;;10.60;99.90;;;;;;4993605;28;20567;-82
2021/12/26 01:19:14;;;;;;;0.00;0.00;;;10.60;99.90;;;;;;5026151;28;20106;-82
2021/12/26 01:21:42;;;;;;;0.00;0.00;;;10.60;99.90;;;;;;4992844;28;20076;-83
2021/12/26 01:24:12;;;;;;;0.00;0.00;;;10.60;99.90;;;;;;4994621;28;20057;-82
2021/12/26 01:26:38;;;;;;;0.00;0.00;;;10.60;99.90;;;;;;5001483;28;20060;-82
2021/12/26 01:29:05;;;;;;;0.10;0.10;;;10.60;99.90;;;;;;5009567;28;20080;-83
2021/12/26 01:31:31;;;;;;;0.00;0.00;;;10.50;99.90;;;;;;4994407;28;20034;-82
2021/12/26 01:34:00;;;;;;;0.00;0.00;;;10.50;99.90;;;;;;4994039;28;20030;-83
2021/12/26 01:36:27;;;;;;;0.00;0.00;;;10.50;99.90;;;;;;5003062;28;20395;-83
2021/12/26 01:38:56;;;;;;;0.00;0.00;;;10.50;99.90;;;;;;5013934;28;20026;-83
2021/12/26 01:41:22;;;;;;;0.00;0.00;;;10.50;99.90;;;;;;5013715;28;20065;-83
2021/12/26 01:43:49;;;;;;;0.00;0.00;;;10.50;99.90;;;;;;5013991;28;20485;-83
2021/12/26 01:46:16;;;;;;;0.00;0.00;;;10.50;99.90;;;;;;5013652;28;20481;-82
2021/12/26 01:48:42;;;;;;;0.08;0.05;;;10.60;99.90;;;;;;5013514;28;20069;-83
2021/12/26 01:51:08;;;;;;;0.00;0.00;;;10.60;99.90;;;;;;5012140;28;20058;-83
2021/12/26 01:53:38;;;;;;;0.00;0.00;;;10.60;99.90;;;;;;5013575;28;20018;-83
2021/12/26 01:56:13;;;;;;;0.00;0.00;;;10.60;99.90;;;;;;5012461;28;20105;-83
2021/12/26 01:58:39;;;;;;;0.00;0.00;;;10.60;99.90;;;;;;5012656;28;20061;-83
2021/12/26 02:01:11;;;;;;;0.52;0.52;;;10.60;99.90;;;;;;5013149;28;20048;-84
2021/12/26 02:03:38;;;;;;;0.00;0.00;;;10.60;99.90;;;;;;5013697;28;20053;-84
2021/12/26 02:06:06;;;;;;;0.00;0.00;;;10.60;99.90;;;;;;5013286;28;20030;-84
2021/12/26 02:08:32;;;;;;;0.00;0.00;;;10.60;99.90;;;;;;5012111;28;20025;-84
2021/12/26 02:11:00;;;;;;;0.10;0.10;;;10.50;99.90;;;;;;5013252;28;20034;-83
2021/12/26 02:13:27;;;;;;;0.00;0.00;;;10.50;99.90;;;;;;5013496;28;20496;-84
2021/12/26 02:15:52;;;;;;;0.00;0.00;;;10.40;99.90;;;;;;5012942;28;20053;-83
2021/12/26 02:18:19;;;;;;;0.00;0.00;;;10.40;99.90;;;;;;5013223;28;20104;-84
2021/12/26 02:23:22;;;;;;;0.13;0.13;;;10.40;99.90;;;;;;5011516;28;20021;-84
2021/12/26 02:28:26;;;;;;;0.00;0.00;;;10.30;99.90;;;;;;5012904;28;20468;-84
2021/12/26 02:30:55;;;;;;;0.00;0.00;;;10.30;99.90;;;;;;5013199;28;20397;-85
2021/12/26 02:33:22;;;;;;;0.00;0.00;;;10.30;99.90;;;;;;5012968;28;20034;-84
2021/12/26 02:35:49;;;;;;;0.00;0.00;;;10.30;99.90;;;;;;5011629;28;20116;-85
2021/12/26 02:38:16;;;;;;;0.00;0.00;;;10.30;99.90;;;;;;5012865;28;20022;-84
2021/12/26 02:40:44;;;;;;;0.00;0.00;;;10.30;99.90;;;;;;5012795;28;20034;-85
2021/12/26 02:43:10;;;;;;;0.40;0.40;;;10.30;99.90;;;;;;5012880;28;20026;-85
2021/12/26 02:45:36;;;;;;;0.10;0.10;;;10.30;99.90;;;;;;5012322;28;20060;-85
2021/12/26 02:48:03;;;;;;;0.00;0.00;;;10.30;99.90;;;;;;5011407;28;20084;-86
2021/12/26 02:50:30;;;;;;;0.00;0.00;;;10.30;99.90;;;;;;5010931;28;20034;-85
2021/12/26 02:52:59;;;;;;;1.27;1.17;;;10.30;99.90;;;;;;5012621;28;20018;-85
2021/12/26 02:55:26;;;;;;;0.00;0.00;;;10.40;99.90;;;;;;5012678;28;20026;-84
2021/12/26 02:57:56;;;;;;;0.00;0.00;;;10.40;99.90;;;;;;5012634;28;20026;-86
2021/12/26 03:00:25;;;;;;;0.00;0.00;;;10.50;99.90;;;;;;5008185;28;20039;-85
2021/12/26 03:02:54;;;;;;;0.00;0.00;;;10.60;99.90;;;;;;4991823;28;20037;-86
2021/12/26 03:05:24;;;;;;;3.00;1.10;;;10.60;99.90;;;;;;4991545;28;20033;-84
2021/12/26 03:07:49;;;;;;;0.00;0.00;;;10.50;99.90;;;;;;4993169;28;20490;-85
2021/12/26 03:10:22;;;;;;;0.00;0.00;;;10.50;99.90;;;;;;4992578;28;20160;-86
2021/12/26 03:12:51;;;;;;;0.00;0.00;;;10.50;99.90;;;;;;4993039;28;20027;-86
2021/12/26 03:15:16;;;;;;;0.00;0.00;;;10.50;99.90;;;;;;4993152;28;20019;-85
2021/12/26 03:17:42;;;;;;;0.15;0.15;;;10.50;99.90;;;;;;4992764;28;20038;-85
2021/12/26 03:20:13;;;;;;;0.00;0.00;;;10.50;99.90;;;;;;4992661;28;20105;-86
2021/12/26 03:22:40;;;;;;;0.00;0.00;;;10.50;99.90;;;;;;4991387;28;20162;-85
2021/12/26 03:25:11;;;;;;;0.00;0.00;;;10.50;99.90;;;;;;4991603;28;20022;-86
2021/12/26 03:27:37;;;;;;;0.00;0.00;;;10.50;99.90;;;;;;4992835;28;20050;-86
2021/12/26 03:30:06;;;;;;;0.47;0.47;;;10.50;99.90;;;;;;4992276;28;20531;-85
2021/12/26 03:32:32;;;;;;;0.10;0.10;;;10.50;99.90;;;;;;4992765;28;20030;-85
2021/12/26 03:34:57;;;;;;;0.17;0.17;;;10.50;99.90;;;;;;4992719;28;20033;-85
2021/12/26 03:37:23;;;;;;;0.32;0.32;;;10.50;99.90;;;;;;4992778;28;20030;-85
2021/12/26 03:39:49;;;;;;;0.00;0.00;;;10.60;99.90;;;;;;4991463;28;20041;-83
2021/12/26 03:42:15;;;;;;;0.70;0.70;;;10.50;99.90;;;;;;4992691;28;20046;-83
2021/12/26 03:44:41;;;;;;;0.45;0.45;;;10.60;99.90;;;;;;4992875;28;20030;-83
2021/12/26 03:47:07;;;;;;;0.00;0.00;;;10.60;99.90;;;;;;4998544;28;20400;-85
2021/12/26 03:49:33;;;;;;;0.80;0.80;;;10.60;99.90;;;;;;5011745;28;20022;-83
2021/12/26 03:51:59;;;;;;;0.00;0.00;;;10.70;99.90;;;;;;5012401;28;20025;-84
2021/12/26 03:54:24;;;;;;;0.13;0.13;;;10.80;99.90;;;;;;5011594;28;20018;-84
2021/12/26 03:56:50;;;;;;;0.00;0.00;;;10.80;99.90;;;;;;5012536;28;20084;-85
2021/12/26 03:59:16;;;;;;;0.10;0.10;;;10.90;99.90;;;;;;5015775;28;20048;-86
2021/12/26 04:01:41;;;;;;;1.25;0.47;;;10.90;99.90;;;;;;5015555;28;20038;-83
2021/12/26 04:04:07;;;;;;;0.00;0.00;;;10.90;99.90;;;;;;5015845;28;20033;-82
2021/12/26 04:06:33;;;;;;;0.10;0.10;;;10.90;99.90;;;;;;5015799;28;20026;-82
2021/12/26 04:08:59;;;;;;;0.00;0.00;;;11.00;99.90;;;;;;5015691;28;20034;-83
2021/12/26 04:11:25;;;;;;;0.00;0.00;;;11.00;99.90;;;;;;5013938;28;20030;-82
2021/12/26 04:13:51;;;;;;;0.13;0.13;;;11.00;99.90;;;;;;5015821;28;20022;-85
2021/12/26 04:16:17;;;;;;;0.00;0.00;;;11.10;99.90;;;;;;5015465;28;20092;-82
2021/12/26 04:18:42;;;;;;;9.13;1.98;;;11.10;99.90;;;;;;5015500;28;20485;-82
2021/12/26 04:21:08;;;;;;;0.00;0.00;;;11.10;99.90;;;;;;5014696;28;20037;-82
2021/12/26 04:23:35;;;;;;;0.00;0.00;;;11.10;99.90;;;;;;5012828;28;20033;-83
2021/12/26 04:26:01;;;;;;;0.00;0.00;;;11.10;99.90;;;;;;5014298;28;20041;-83
2021/12/26 04:28:27;;;;;;;8.10;0.98;;;11.10;99.90;;;;;;5015130;28;20057;-84
2021/12/26 04:30:53;;;;;;;0.00;0.00;;;11.10;99.90;;;;;;5015388;28;20030;-83
2021/12/26 04:33:20;;;;;;;0.00;0.00;;;11.00;99.90;;;;;;5015208;28;20035;-83
2021/12/26 04:35:45;;;;;;;0.90;0.85;;;11.00;99.90;;;;;;5015109;28;20025;-83
2021/12/26 04:38:11;;;;;;;0.00;0.00;;;11.00;99.90;;;;;;5015223;28;20022;-86
2021/12/26 04:40:37;;;;;;;0.00;0.00;;;10.90;99.90;;;;;;5014932;28;20507;-86
2021/12/26 04:43:04;;;;;;;0.20;0.20;;;10.90;99.90;;;;;;5015013;28;20084;-83
2021/12/26 04:45:30;;;;;;;0.00;0.00;;;10.80;99.90;;;;;;5014018;28;20480;-86
2021/12/26 04:47:56;;;;;;;0.77;0.40;;;10.80;99.90;;;;;;5014300;28;20558;-83
2021/12/26 04:50:24;;;;;;;0.00;0.00;;;10.90;99.90;;;;;;5014256;28;20144;-83
2021/12/26 04:52:52;;;;;;;0.93;0.93;;;10.80;99.90;;;;;;5014971;28;20022;-85
2021/12/26 04:55:21;;;;;;;0.00;0.00;;;10.80;99.90;;;;;;5014834;28;20029;-87
2021/12/26 04:57:48;;;;;;;9.55;0.70;;;10.90;99.90;;;;;;5014692;28;20021;-84
2021/12/26 05:00:18;;;;;;;0.05;0.05;;;10.90;99.90;;;;;;5014460;28;20093;-88
2021/12/26 05:02:45;;;;;;;2.05;1.13;;;10.90;99.90;;;;;;5014626;28;20021;-84
2021/12/26 05:05:11;;;;;;;3.72;0.57;;;10.90;99.90;;;;;;5014363;28;20101;-87
2021/12/26 05:07:38;;;;;;;0.10;0.10;;;10.80;99.90;;;;;;5014139;28;20456;-84
2021/12/26 05:10:06;;;;;;;0.13;0.13;;;10.80;99.90;;;;;;5013979;28;20029;-88
2021/12/26 05:12:32;;;;;;;0.00;0.00;;;10.70;99.90;;;;;;5014676;28;20022;-84
2021/12/26 05:14:58;;;;;;;0.00;0.00;;;10.70;99.90;;;;;;5014689;28;20041;-84
2021/12/26 05:17:24;;;;;;;0.00;0.00;;;10.70;99.90;;;;;;5013071;28;20021;-87
2021/12/26 05:19:49;;;;;;;0.00;0.00;;;10.60;99.90;;;;;;5014297;28;20036;-87
2021/12/26 05:22:15;;;;;;;0.70;0.70;;;10.60;99.90;;;;;;5014169;28;20026;-85
2021/12/26 05:24:40;;;;;;;0.00;0.00;;;10.70;99.90;;;;;;5012830;28;20038;-84
2021/12/26 05:27:06;;;;;;;0.20;0.20;;;10.70;99.90;;;;;;5013909;28;20077;-84
2021/12/26 05:29:32;;;;;;;0.00;0.00;;;10.70;99.90;;;;;;5014289;28;20041;-86
2021/12/26 05:31:58;;;;;;;0.52;0.52;;;10.80;99.90;;;;;;5014185;28;20034;-86
2021/12/26 05:34:23;;;;;;;0.00;0.00;;;10.90;99.90;;;;;;5014204;28;20033;-86
2021/12/26 05:36:49;;;;;;;0.55;0.55;;;10.90;99.90;;;;;;5013886;28;20026;-84
2021/12/26 05:39:15;;;;;;;1.17;0.22;;;10.90;99.90;;;;;;5013846;28;20475;-85
2021/12/26 05:41:41;;;;;;;0.00;0.00;;;10.90;99.90;;;;;;5013917;28;20053;-85
2021/12/26 05:44:09;;;;;;;1.52;1.42;;;10.90;99.90;;;;;;5014141;28;20029;-86
2021/12/26 05:46:36;;;;;;;0.00;0.00;;;10.90;99.90;;;;;;5013875;28;20049;-85
2021/12/26 05:49:01;;;;;;;0.00;0.00;;;10.90;99.90;;;;;;5013524;28;20025;-85
2021/12/26 05:51:27;;;;;;;0.30;0.30;;;10.90;99.90;;;;;;5013529;28;20025;-85
2021/12/26 05:53:53;;;;;;;0.15;0.15;;;10.80;99.90;;;;;;5013805;28;20520;-85
2021/12/26 05:56:19;;;;;;;0.00;0.00;;;10.80;99.90;;;;;;5013493;28;20392;-85
2021/12/26 05:58:44;;;;;;;0.40;0.40;;;10.80;99.90;;;;;;5013287;28;20025;-86
2021/12/26 06:01:10;;;;;;;1.45;0.65;;;10.70;99.90;;;;;;5013532;28;20022;-86
2021/12/26 06:03:36;;;;;;;5.30;1.40;;;10.80;99.90;;;;;;5013565;28;20541;-85
2021/12/26 06:06:02;;;;;;;0.00;0.00;;;10.80;99.90;;;;;;5013278;28;20447;-87
2021/12/26 06:08:28;;;;;;;1.45;1.25;;;10.80;99.90;;;;;;5013461;28;20037;-85
2021/12/26 06:10:54;;;;;;;0.60;0.60;;;10.80;99.90;;;;;;5013289;28;20018;-87
2021/12/26 06:13:19;;;;;;;0.00;0.00;;;10.80;99.90;;;;;;5013307;28;20456;-86
2021/12/26 06:15:45;;;;;;;0.40;0.40;;;10.80;99.90;;;;;;5013602;28;20022;-88
2021/12/26 06:18:11;;;;;;;0.20;0.20;;;10.70;99.90;;;;;;5011859;28;20033;-87
2021/12/26 06:20:36;;;;;;;0.95;0.90;;;10.80;99.90;;;;;;5012973;28;20022;-86
2021/12/26 06:23:03;;;;;;;0.00;0.00;;;10.80;99.90;;;;;;5013145;28;20034;-85
2021/12/26 06:25:29;;;;;;;1.05;1.05;;;10.80;99.90;;;;;;5011821;28;20108;-89
2021/12/26 06:27:54;;;;;;;0.25;0.25;;;10.80;99.90;;;;;;5013130;28;20081;-88
2021/12/26 06:30:20;;;;;;;0.00;0.00;;;10.80;99.90;;;;;;5013178;28;20056;-85
2021/12/26 06:32:46;;;;;;;3.85;1.48;;;10.80;99.90;;;;;;5013041;28;20500;-86
2021/12/26 06:35:12;;;;;;;1.02;0.90;;;10.90;99.90;;;;;;5012384;28;20493;-86
2021/12/26 06:37:38;;;;;;;0.88;0.88;;;10.90;99.90;;;;;;5013185;28;20097;-86
2021/12/26 06:40:06;;;;;;;0.00;0.00;;;10.80;99.90;;;;;;5013054;28;20390;-89
2021/12/26 06:42:33;;;;;;;0.00;0.00;;;10.80;99.90;;;;;;5011895;28;20115;-85
2021/12/26 06:44:59;;;;;;;2.25;0.85;;;10.90;99.90;;;;;;5013139;28;20674;-89
2021/12/26 06:47:25;;;;;;;0.70;0.70;;;10.80;99.90;;;;;;5011395;28;20104;-86
2021/12/26 06:49:51;;;;;;;0.00;0.00;;;10.80;99.90;;;;;;5012306;28;20026;-86
2021/12/26 06:52:17;;;;;;;0.00;0.00;;;10.80;99.90;;;;;;5012533;28;20056;-89
2021/12/26 06:54:42;;;;;;;3.00;1.10;;;10.90;99.90;;;;;;5012994;28;20022;-90
2021/12/26 06:57:08;;;;;;;0.75;0.70;;;10.80;99.90;;;;;;5012550;28;20026;-91
2021/12/26 06:59:34;;;;;;;0.00;0.00;;;10.80;99.90;;;;;;5012922;28;20482;-86
2021/12/26 07:01:59;;;;;;;0.00;0.00;;;10.80;99.90;;;;;;5007080;28;20038;-86
2021/12/26 07:04:25;;;;;;;1.17;0.50;;;10.80;99.90;;;;;;4993010;28;20050;-90
2021/12/26 07:06:50;;;;;;;0.08;0.08;;;10.70;99.90;;;;;;4993046;28;20057;-90
2021/12/26 07:09:17;;;;;;;0.08;0.08;;;10.70;99.90;;;;;;4992802;28;20512;-90
2021/12/26 07:11:42;;;;;;;2.25;0.63;;;10.70;99.90;;;;;;4991578;28;20034;-90
2021/12/26 07:14:08;;;;;;;0.00;0.00;;;10.60;99.90;;;;;;4993205;28;20444;-86
2021/12/26 07:16:34;;;;;;;0.17;0.17;;;10.70;99.90;;;;;;4992459;28;20084;-86
2021/12/26 07:19:00;;;;;;;0.00;0.00;;;10.60;99.90;;;;;;4992843;28;20022;-90
2021/12/26 07:21:26;;;;;;;0.00;0.00;;;10.70;99.90;;;;;;4992611;28;20030;-86
2021/12/26 07:23:51;;;;;;;0.00;0.00;;;10.60;99.90;;;;;;4993233;28;20054;-90
2021/12/26 07:26:17;;;;;;;0.30;0.30;;;10.60;99.90;;;;;;5000076;28;20026;-90
2021/12/26 07:28:43;;;;;;;0.00;0.00;;;10.60;99.90;;;;;;5012419;28;20143;-86
2021/12/26 07:31:09;;;;;;;2.60;1.38;;;10.60;99.90;;;;;;5013780;28;20069;-90
2021/12/26 07:33:35;;;;;;;0.75;0.40;;;10.60;99.90;;;;;;5016358;28;20026;-85
2021/12/26 07:36:00;;;;;;;0.00;0.00;;;10.60;99.90;;;;;;5015171;28;20033;-90
2021/12/26 07:38:26;;;;;;;1.23;0.82;;;10.70;99.90;;;;;;5016857;28;20021;-91
2021/12/26 07:40:52;;;;;;;0.73;0.68;;;10.70;99.90;;;;;;5016565;28;20030;-85
2021/12/26 07:43:18;;;;;;;13.25;2.50;;;10.70;99.90;;;;;;5016366;28;20040;-91
2021/12/26 07:45:43;;;;;;;10.85;3.92;;;10.70;99.90;;;;;;5015284;28;20109;-90
2021/12/26 07:48:09;;;;;;;0.90;0.90;;;10.60;99.90;;;;;;5014471;28;20049;-91
2021/12/26 07:50:35;;;;;;;1.75;1.52;;;10.70;99.90;;;;;;5015629;28;20036;-90
2021/12/26 07:53:06;;;;;;;1.42;1.35;;;10.60;99.90;;;;;;5015975;28;20109;-85
2021/12/26 07:55:32;;;;;;;0.00;0.00;;;10.60;99.90;;;;;;5016005;28;20050;-90
2021/12/26 07:57:57;;;;;;;0.00;0.00;;;10.60;99.90;;;;;;5014645;28;20049;-90
2021/12/26 08:00:23;;;;;;;1.80;1.70;;;10.60;99.90;;;;;;5016117;28;20030;-90
2021/12/26 08:02:49;;;;;;;0.08;0.08;;;10.70;99.90;;;;;;5016044;28;20054;-90
2021/12/26 08:05:16;;;;;;;0.00;0.00;;;10.60;99.90;;;;;;5015816;28;20033;-85
2021/12/26 08:07:42;;;;;;;0.22;0.22;;;10.60;99.90;;;;;;5015865;28;20030;-89
2021/12/26 08:10:08;;;;;;;16.17;0.75;;;10.60;99.90;;;;;;5016406;28;20071;-90
2021/12/26 08:12:34;;;;;;;2.45;1.45;;;10.60;99.90;;;;;;5019029;28;20029;-89
2021/12/26 08:15:02;;;;;;;0.00;0.00;;;10.60;99.90;;;;;;5024883;28;20022;-87
2021/12/26 08:17:28;;;;;;;0.00;0.00;;;10.50;99.90;;;;;;5033194;28;20025;-87
2021/12/26 08:19:54;;;;;;;1.02;1.02;;;10.50;99.90;;;;;;5018355;28;20053;-85
2021/12/26 08:22:20;;;;;;;0.40;0.40;;;10.50;99.90;;;;;;5019872;28;20033;-88
2021/12/26 08:24:46;;;;;;;1.45;1.33;;;10.60;99.90;;;;;;5022083;28;20025;-88
2021/12/26 08:27:12;;;;;;;0.00;0.00;;;10.70;99.90;;;;;;5023926;28;20069;-87
2021/12/26 08:29:37;;;;;;;0.77;0.77;;;10.80;99.90;;;;;;5024664;28;20017;-85
2021/12/26 08:32:04;;;;;;;0.52;0.52;;;10.90;99.90;;;;;;5015138;28;20034;-85
2021/12/26 08:34:30;;;;;;;0.55;0.55;;;11.00;99.90;;;;;;5015388;28;20018;-84
2021/12/26 08:37:02;;;;;;;1.65;0.57;;;11.10;99.90;;;;;;5014035;28;20500;-86
2021/12/26 08:39:30;;;;;;;1.00;1.00;;;11.20;99.90;;;;;;5014784;28;20104;-86
2021/12/26 08:41:56;;;;;;;0.00;0.00;;;11.20;99.90;;;;;;5014169;28;20029;-84
2021/12/26 08:44:22;;;;;;;0.13;0.13;;;11.20;99.90;;;;;;5014861;28;20485;-84
2021/12/26 08:46:48;;;;;;;0.32;0.30;;;11.20;99.90;;;;;;5019432;28;20396;-84
2021/12/26 08:49:15;;;;;;;0.00;0.00;;;11.30;99.90;;;;;;5014424;28;20520;-85
2021/12/26 08:51:41;;;;;;;0.10;0.10;;;11.40;99.90;;;;;;5014802;28;20061;-85
2021/12/26 08:54:07;;;;;;;0.00;0.00;;;11.40;99.90;;;;;;5014808;28;20164;-85
2021/12/26 08:56:33;;;;;;;0.00;0.00;;;11.40;99.90;;;;;;5013069;28;20097;-85
2021/12/26 08:58:59;;;;;;;0.43;0.20;;;11.50;99.90;;;;;;5013473;28;20033;-84
2021/12/26 09:01:25;;;;;;;0.15;0.15;;;11.50;99.90;;;;;;5014329;28;20048;-85
2021/12/26 09:03:50;;;;;;;0.85;0.30;;;11.50;99.90;;;;;;5014709;28;20034;-83
2021/12/26 09:06:16;;;;;;;3.85;1.40;;;11.60;99.90;;;;;;5014665;28;20029;-85
2021/12/26 09:08:42;;;;;;;0.20;0.20;;;11.60;99.90;;;;;;5014511;28;20057;-85
2021/12/26 09:11:08;;;;;;;5.43;0.70;;;11.60;99.90;;;;;;5014486;28;20029;-82
2021/12/26 09:13:35;;;;;;;0.17;0.17;;;11.60;99.90;;;;;;5014541;28;20026;-83
2021/12/26 09:16:02;;;;;;;0.20;0.20;;;11.50;99.90;;;;;;5014490;28;20097;-86
2021/12/26 09:18:28;;;;;;;0.00;0.00;;;11.50;99.90;;;;;;5014365;28;20033;-85
2021/12/26 09:20:53;;;;;;;0.15;0.15;;;11.50;99.90;;;;;;5012268;28;20022;-84
2021/12/26 09:23:19;;;;;;;4.97;0.55;;;11.40;99.90;;;;;;5014219;28;20030;-83
2021/12/26 09:25:45;;;;;;;1.45;0.70;;;11.40;99.90;;;;;;5012915;28;20053;-83
2021/12/26 09:28:10;;;;;;;0.20;0.20;;;11.30;99.90;;;;;;5012838;28;20054;-84
2021/12/26 09:30:37;;;;;;;0.80;0.38;;;11.40;99.90;;;;;;5012871;28;20037;-84
2021/12/26 09:33:03;;;;;;;0.00;0.00;;;11.50;99.90;;;;;;5014009;28;20022;-84
2021/12/26 09:35:29;;;;;;;0.40;0.40;;;11.60;99.90;;;;;;5014071;28;20404;-82
2021/12/26 09:37:55;;;;;;;0.98;0.98;;;11.60;99.90;;;;;;5012928;28;20021;-82
2021/12/26 09:40:21;;;;;;;0.00;0.00;;;11.70;99.90;;;;;;5013734;28;20036;-84
2021/12/26 09:42:47;;;;;;;1.08;0.80;;;11.70;99.90;;;;;;5013973;28;20169;-84
2021/12/26 09:45:15;;;;;;;2.92;1.50;;;11.70;99.90;;;;;;5013934;28;20030;-82
2021/12/26 09:47:41;;;;;;;2.80;0.52;;;11.80;99.90;;;;;;5012314;28;20025;-84
2021/12/26 09:50:10;;;;;;;2.35;1.13;;;11.80;99.90;;;;;;5013376;28;20100;-82
2021/12/26 09:52:39;;;;;;;1.95;1.00;;;11.80;99.90;;;;;;5013591;28;20118;-82
2021/12/26 09:55:06;;;;;;;0.00;0.00;;;11.90;99.90;;;;;;5013561;28;20049;-84
2021/12/26 09:57:31;;;;;;;0.63;0.63;;;12.00;99.90;;;;;;5013319;28;20029;-84
2021/12/26 09:59:57;;;;;;;0.20;0.20;;;12.10;99.90;;;;;;5013794;28;20014;-84
2021/12/26 10:02:23;;;;;;;1.75;0.93;;;12.20;99.90;;;;;;5013304;28;20469;-82
2021/12/26 10:04:51;;;;;;;0.70;0.70;;;12.30;99.90;;;;;;5013573;28;20045;-82
2021/12/26 10:07:20;;;;;;;0.52;0.52;;;12.40;99.90;;;;;;5013583;28;20064;-84
2021/12/26 10:09:48;;;;;;;0.63;0.63;;;12.40;99.90;;;;;;5013403;28;20030;-83
2021/12/26 10:12:16;;;;;;;4.90;2.10;;;12.40;99.90;;;;;;5011349;28;20091;-84
2021/12/26 10:14:47;;;;;;;0.00;0.00;;;12.50;99.90;;;;;;5013387;28;20503;-85
2021/12/26 10:17:19;;;;;;;0.00;0.00;;;12.60;99.90;;;;;;5012884;28;20048;-84
2021/12/26 10:19:47;;;;;;;3.47;1.83;;;12.60;99.90;;;;;;5013178;28;20018;-83
2021/12/26 10:22:16;;;;;;;1.95;1.08;;;12.60;99.90;;;;;;5013077;28;20276;-84
2021/12/26 10:24:44;;;;;;;1.80;0.68;;;12.70;99.90;;;;;;5013371;28;20029;-82
2021/12/26 10:27:22;;;;;;;7.57;1.65;;;12.80;99.90;;;;;;5009552;28;20691;-84
2021/12/26 10:29:54;;;;;;;0.73;0.73;;;12.80;99.90;;;;;;5012972;28;20116;-82
2021/12/26 10:32:29;;;;;;;0.20;0.20;;;13.00;99.90;;;;;;5012674;28;20029;-83
2021/12/26 10:34:57;;;;;;;0.17;0.17;;;13.00;99.90;;;;;;5013214;28;20050;-84
2021/12/26 10:37:24;;;;;;;0.30;0.30;;;12.80;99.90;;;;;;5012493;28;20030;-84
2021/12/26 10:39:59;;;;;;;0.20;0.20;;;12.80;99.90;;;;;;5013065;28;20554;-82
2021/12/26 10:42:30;;;;;;;0.00;0.00;;;12.90;99.90;;;;;;5012667;28;20524;-84
2021/12/26 10:45:03;;;;;;;35.53;1.08;;;13.00;99.90;;;;;;5013001;28;20034;-84
2021/12/26 10:47:30;;;;;;;0.00;0.00;;;13.00;99.90;;;;;;5011567;28;20374;-85
2021/12/26 10:50:00;;;;;;;0.93;0.93;;;13.10;99.90;;;;;;5012385;28;20497;-84
2021/12/26 10:52:39;;;;;;;0.70;0.70;;;13.10;99.90;;;;;;5012510;28;20030;-82
2021/12/26 10:55:38;;;;;;;2.55;1.50;;;13.20;99.90;;;;;;5011557;28;20052;-82
2021/12/26 10:58:15;;;;;;;0.98;0.55;;;13.20;99.90;;;;;;5012598;28;20025;-84
2021/12/26 11:00:47;;;;;;;10.75;2.83;;;13.00;99.90;;;;;;5012839;28;20524;-85
2021/12/26 11:03:23;;;;;;;0.00;0.00;;;12.90;99.90;;;;;;4998723;28;20036;-82
2021/12/26 11:05:52;;;;;;;0.05;0.05;;;13.00;99.90;;;;;;4992507;28;20035;-83
2021/12/26 11:08:29;;;;;;;0.10;0.10;;;13.00;99.90;;;;;;4993131;28;20113;-81
2021/12/26 11:10:55;;;;;;;1.65;0.85;;;13.10;99.90;;;;;;4992925;28;20529;-83
2021/12/26 11:13:31;;;;;;;0.20;0.20;;;13.10;99.90;;;;;;4992939;28;20026;-81
2021/12/26 11:16:01;;;;;;;0.00;0.00;;;13.20;99.90;;;;;;4993351;28;20022;-85
2021/12/26 11:18:27;;;;;;;1.48;0.22;;;13.10;99.90;;;;;;4992872;28;20445;-84
2021/12/26 11:20:56;;;;;;;4.22;2.10;;;13.10;99.90;;;;;;5024346;28;20054;-81
2021/12/26 11:23:30;;;;;;;9.05;1.70;;;13.10;99.90;;;;;;4992860;28;20113;-83
2021/12/26 11:26:00;;;;;;;0.93;0.65;;;13.10;99.90;;;;;;4998773;28;20030;-83
2021/12/26 11:28:35;;;;;;;1.45;0.35;;;13.20;99.90;;;;;;5009467;28;20042;-85
2021/12/26 11:31:07;;;;;;;0.05;0.05;;;13.30;99.90;;;;;;5012543;28;20482;-83
2021/12/26 11:33:33;;;;;;;0.00;0.00;;;13.30;99.90;;;;;;5012365;28;20485;-84
2021/12/26 11:36:01;;;;;;;0.10;0.08;;;13.20;99.90;;;;;;5012261;28;20504;-82
2021/12/26 11:38:28;;;;;;;1.75;0.85;;;13.30;99.90;;;;;;5012467;28;20028;-81
2021/12/26 11:41:08;;;;;;;1.08;0.73;;;13.30;99.90;;;;;;5012319;28;20026;-84
2021/12/26 11:44:11;;;;;;;0.00;0.00;;;13.20;99.90;;;;;;5012628;28;20033;-84
2021/12/26 11:47:05;;;;;;;0.38;0.38;;;13.10;99.90;;;;;;5012444;28;20555;-81
2021/12/26 11:50:00;;;;;;;0.00;0.00;;;13.10;99.90;;;;;;5011862;28;20037;-83
2021/12/26 11:52:56;;;;;;;0.52;0.52;;;13.20;99.90;;;;;;5010322;28;20344;-84
2021/12/26 11:55:54;;;;;;;0.05;0.05;;;13.20;99.90;;;;;;5012083;28;20034;-84
2021/12/26 11:58:38;;;;;;;0.90;0.52;;;13.30;99.90;;;;;;5011882;28;20042;-84
2021/12/26 12:01:05;;;;;;;0.20;0.10;;;13.50;99.90;;;;;;5012077;28;20030;-81
2021/12/26 12:03:32;;;;;;;0.57;0.57;;;13.50;99.90;;;;;;4995770;28;20053;-85
2021/12/26 12:05:59;;;;;;;1.42;0.52;;;13.60;99.90;;;;;;4992478;28;20054;-84
2021/12/26 12:08:28;;;;;;;1.27;0.95;;;13.60;99.90;;;;;;4992485;28;20041;-82
2021/12/26 12:10:57;;;;;;;0.30;0.30;;;13.60;99.90;;;;;;4992515;28;20030;-84
2021/12/26 12:13:23;;;;;;;0.00;0.00;;;13.70;99.90;;;;;;5023925;28;20030;-80
2021/12/26 12:15:58;;;;;;;0.73;0.50;;;13.80;99.90;;;;;;5023743;28;20022;-81
2021/12/26 12:18:53;;;;;;;0.55;0.55;;;13.80;99.90;;;;;;4995094;28;20037;-81
2021/12/26 12:21:47;;;;;;;0.30;0.30;;;13.80;99.90;;;;;;4995526;28;20559;-84
2021/12/26 12:24:14;;;;;;;4.43;1.60;;;13.80;99.90;;;;;;4995557;28;20037;-84
2021/12/26 12:27:08;;;;;;;0.00;0.00;;;13.90;99.90;;;;;;5007438;28;20030;-84
2021/12/26 12:29:39;;;;;;;;;;;13.70;99.90;;;;;;5013050;28;20121;-84
2021/12/26 12:32:08;;;;;;;0.00;0.00;;;13.90;99.90;;;;;;5015478;28;19949;-84
2021/12/26 12:35:04;;;;;;;0.05;0.05;;;14.00;99.90;;;;;;5015185;28;20026;-84
2021/12/26 12:37:36;;;;;;;1.88;1.70;;;13.80;99.90;;;;;;5015072;28;20018;-84
2021/12/26 12:40:29;;;;;;;0.20;0.20;;;13.90;99.90;;;;;;5015253;28;20389;-81
2021/12/26 12:43:15;;;;;;;4.90;0.38;;;14.10;99.90;;;;;;5015174;28;20022;-84
2021/12/26 12:45:53;;;;;;;0.47;0.47;;;13.90;99.90;;;;;;5015288;28;20186;-83
2021/12/26 12:48:23;;;;;;;0.00;0.00;;;14.00;99.90;;;;;;5015022;28;20426;-84
2021/12/26 12:50:53;;;;;;;0.00;0.00;;;14.00;99.90;;;;;;5013159;28;20030;-84
2021/12/26 12:53:41;;;;;;;2.17;1.10;;;14.00;99.90;;;;;;5014578;28;20026;-81
2021/12/26 12:56:30;;;;;;;0.00;0.00;;;14.10;99.90;;;;;;5014776;28;20400;-84
2021/12/26 12:59:18;;;;;;;0.30;0.30;;;14.10;99.90;;;;;;5014915;28;20547;-84